Flight Track Log - Related Links

Times and Time Zones

All times are in EDT time to prevent confusion due to time zone crossing. See the N53PB flight status page for this flight to view local times or setup timezone preferences in your user account.

Time Position Orientation Groundspeed Altitude Reporting Facility
EDT Latitude Longitude Course Direction KTS MPH feet Rate Location/Type
Thu 09:56:15 PM 42.2686 -85.2517 95° East 99 114 2,500  Level Cleveland Center
Thu 09:57:16 PM 42.2633 -85.2183 102° East 92 106 3,100 585 Climbing Cleveland Center
Thu 09:58:18 PM 42.2575 -85.1769 101° East 93 107 3,700 532 Climbing Cleveland Center
Thu 09:59:20 PM 42.2522 -85.1433 102° East 94 108 4,200 488 Climbing Cleveland Center
Thu 10:00:00 PM 42.3065 -85.2501 85° East  Level Estimated
Thu 10:00:21 PM 42.2464 -85.1069 102° East 98 113 4,700  Level Cleveland Center
Thu 10:01:00 PM 42.3065 -85.2501 95° East  Level Estimated
Thu 10:01:23 PM 42.2411 -85.0669 100° East 107 123 5,000  Level Cleveland Center
Thu 10:02:24 PM 42.2414 -85.0208 90° East 121 139 5,000 -49 Level Cleveland Center
Thu 10:03:26 PM 42.2417 -84.9711 90° East 131 151 4,900  Descending Cleveland Center
Thu 10:04:28 PM 42.2422 -84.9217 89° East 131 151 5,000 49 Climbing Cleveland Center
Thu 10:05:29 PM 42.2408 -84.8714 92° East 134 154 5,000  Level Cleveland Center
Thu 10:06:31 PM 42.2397 -84.8103 91° East 136 157 5,000  Level Cleveland Center
Thu 10:07:32 PM 42.2408 -84.7619 88° East 131 151 5,000 -49 Level Cleveland Center
Thu 10:08:34 PM 42.2428 -84.7125 87° East 131 151 4,900  Descending Cleveland Center
Thu 10:09:35 PM 42.2458 -84.6636 85° East 131 151 5,000 49 Climbing Cleveland Center
Thu 10:10:37 PM 42.2475 -84.6197 87° East 128 147 5,000  Level Cleveland Center
Thu 10:11:38 PM 42.2528 -84.5614 83° East 130 150 5,000  Level Cleveland Center
Thu 10:12:40 PM 42.2542 -84.5117 88° East 131 151 5,000  Level Cleveland Center
Thu 10:13:41 PM 42.2583 -84.4631 83° East 132 152 5,000 49 Level Cleveland Center
Thu 10:14:43 PM 42.2911 -84.4392 28° Northeast 135 155 5,100  Climbing Cleveland Center
Thu 10:15:45 PM 42.3247 -84.4167 26° Northeast 133 153 5,000 -49 Descending Cleveland Center
Thu 10:16:46 PM 42.3567 -84.3900 32° Northeast 135 155 5,000  Level Cleveland Center
Thu 10:17:48 PM 42.3883 -84.3647 31° Northeast 133 153 5,000  Level Cleveland Center
Thu 10:18:49 PM 42.4206 -84.3422 27° Northeast 132 152 5,000  Level Cleveland Center
Thu 10:19:51 PM 42.4592 -84.3128 29° Northeast 133 153 5,000  Level Cleveland Center
Thu 10:20:52 PM 42.4919 -84.2875 30° Northeast 133 153 5,000  Level Cleveland Center
Thu 10:21:54 PM 42.5242 -84.2639 28° Northeast 133 153 5,000  Level Cleveland Center
Thu 10:22:55 PM 42.5597 -84.2389 27° Northeast 134 154 5,000  Level Cleveland Center
Thu 10:23:57 PM 42.5917 -84.2169 27° Northeast 131 151 5,000  Level Cleveland Center
Thu 10:24:58 PM 42.6258 -84.1919 28° Northeast 130 150 5,000  Level Cleveland Center
Thu 10:25:59 PM 42.6564 -84.1656 32° Northeast 131 151 5,000  Level Cleveland Center
Thu 10:27:01 PM 42.6872 -84.1408 31° Northeast 130 150 5,000  Level Cleveland Center
Thu 10:28:02 PM 42.7192 -84.1108 35° Northeast 130 150 5,000  Level Cleveland Center
Thu 10:29:04 PM 42.7428 -84.0753 48° Northeast 129 148 5,000  Level Cleveland Center
Thu 10:30:05 PM 42.7700 -84.0392 44° Northeast 129 148 5,000 -244 Level Cleveland Center
Thu 10:31:07 PM 42.8061 -84.0308 10° North 138 159 4,500 -537 Descending Cleveland Center
Thu 10:32:08 PM 42.8444 -84.0286 North 139 160 3,900 -585 Descending Cleveland Center
Thu 10:33:10 PM 42.8867 -84.0294 359° North 140 161 3,300 -439 Descending Cleveland Center
Thu 10:34:11 PM 42.9219 -84.0128 19° North 135 155 3,000 -146 Descending Cleveland Center
Thu 10:35:13 PM 42.9550 -83.9931 24° Northeast 132 152 3,000 -195 Level Cleveland Center
Thu 10:36:14 PM 42.9650 -83.9417 75° East 137 158 2,600 -197 Descending Cleveland Center
Thu 10:37:15 PM 42.9658 -83.8975 89° East 123 142 2,600 -293 Level Cleveland Center
Thu 10:38:17 PM 42.9669 -83.8569 88° East 105 121 2,000 -488 Descending Cleveland Center
Thu 10:39:18 PM 42.9675 -83.8225 89° East 95 109 1,600 -341 Descending Cleveland Center
Thu 10:40:20 PM 42.9681 -83.7961 88° East 76 87 1,300 -341 Descending Cleveland Center
Thu 10:41:21 PM 42.9683 -83.7675 89° East 70 81 900 -246 Descending Cleveland Center
Thu 10:42:22 PM 42.9689 -83.7456 88° East 59 68 800 341 Descending Cleveland Center
Thu 10:43:24 PM 42.9689 -83.7189 90° East 67 77 1,600 585 Climbing Cleveland Center
Thu 10:44:25 PM 42.9586 -83.6925 118° Southeast 81 93 2,000 393 Climbing Cleveland Center
Thu 10:45:26 PM 42.9367 -83.7244 227° Southwest 129 148 2,400 443 Climbing Cleveland Center
Thu 10:46:27 PM 42.9256 -83.7692 251° West 125 144 2,900 488 Climbing Cleveland Center
Thu 10:47:29 PM 42.9150 -83.8131 252° West 124 143 3,400 488 Climbing Cleveland Center
Thu 10:48:30 PM 42.9097 -83.8614 262° West 119 137 3,900 295 Climbing Cleveland Center
Thu 10:49:31 PM 42.9017 -83.9072 257° West 123 142 4,000 49 Climbing Cleveland Center
Thu 10:50:32 PM 42.8931 -83.9567 257° West 133 153 4,000  Level Cleveland Center
Thu 10:51:34 PM 42.8822 -84.0108 255° West 137 158 4,000  Level Cleveland Center
Thu 10:52:35 PM 42.8700 -84.0608 252° West 141 162 4,000  Level Cleveland Center
Thu 10:53:36 PM 42.8583 -84.1097 252° West 139 160 4,000  Level Cleveland Center
Thu 10:54:37 PM 42.8453 -84.1633 252° West 140 161 4,000  Level Cleveland Center
Thu 10:55:38 PM 42.8472 -84.2153 273° West 144 166 4,000 -49 Level Cleveland Center
Thu 10:56:39 PM 42.8547 -84.2669 281° West 142 163 3,900  Descending Cleveland Center
Thu 10:57:40 PM 42.8608 -84.3231 278° West 139 160 4,000 49 Climbing Cleveland Center
Thu 10:58:42 PM 42.8678 -84.3756 280° West 142 163 4,000  Level Cleveland Center
Thu 10:59:43 PM 42.8728 -84.4281 277° West 142 163 4,000  Level Cleveland Center
Thu 11:00:44 PM 42.8800 -84.4853 280° West 144 166 4,000  Level Cleveland Center
Thu 11:01:45 PM 42.8889 -84.5369 283° West 144 166 4,000 -50 Level Cleveland Center
Thu 11:02:45 PM 42.8967 -84.5897 281° West 140 161 3,900  Descending Chicago Center
Thu 11:03:47 PM 42.9014 -84.6431 277° West 141 162 4,000 -195 Climbing Chicago Center
Thu 11:04:48 PM 42.9094 -84.6958 282° West 141 162 3,500 -492 Descending Chicago Center
Thu 11:05:49 PM 42.9147 -84.7506 278° West 145 167 3,000 -246 Descending Chicago Center
Thu 11:06:50 PM 42.8822 -84.7856 218° Southwest 142 163 3,000  Level Chicago Center
Thu 11:07:51 PM 42.8489 -84.8075 206° Southwest 136 157 3,000  Level Chicago Center
Thu 11:08:52 PM 42.8147 -84.8125 186° South 127 146 3,000  Level Chicago Center
Thu 11:09:53 PM 42.7792 -84.8133 181° South 128 147 3,000 -295 Level Chicago Center
Thu 11:10:54 PM 42.7756 -84.7694 96° East 124 143 2,400 -344 Descending Chicago Center
Thu 11:11:55 PM 42.7800 -84.7231 83° East 124 143 2,300 -148 Descending Chicago Center
Thu 11:12:56 PM 42.7806 -84.6844 89° East 115 132 2,100 -246 Descending Chicago Center
Thu 11:13:57 PM 42.7817 -84.6394 88° East 111 128 1,800 70 Descending Chicago Center
Thu 11:15:00 PM 42.8339 -84.6882 326° Northwest  Level FlightAware Approximate
Thu 11:18:38 PM 42.7492 -84.5792 211° Southwest 81 93 2,500  Level Cleveland Center
Thu 11:19:38 PM 42.7289 -84.6081 226° Southwest 98 113 3,100 595 Climbing Chicago Center
Thu 11:20:39 PM 42.7083 -84.6381 227° Southwest 103 119 3,700 443 Climbing Chicago Center
Thu 11:21:40 PM 42.6883 -84.6703 230° Southwest 110 127 4,000 148 Climbing Chicago Center
Thu 11:22:00 PM 42.5676 -85.0260 211° Southwest  Level FlightAware Approximate
Thu 11:22:41 PM 42.6642 -84.7075 229° Southwest 126 145 4,000  Level Chicago Center
Thu 11:23:00 PM 42.5157 -85.0677 211° Southwest  Level FlightAware Approximate
Thu 11:23:41 PM 42.6389 -84.7472 229° Southwest 136 157 4,000  Level Chicago Center
Thu 11:24:42 PM 42.6128 -84.7856 227° Southwest 137 158 4,000  Level Chicago Center
Thu 11:25:43 PM 42.5872 -84.8256 229° Southwest 140 161 4,000  Level Chicago Center
Thu 11:26:44 PM 42.5608 -84.8653 228° Southwest 141 162 4,000 -49 Level Chicago Center
Thu 11:27:45 PM 42.5292 -84.9117 227° Southwest 140 161 3,900  Descending Chicago Center
Thu 11:28:46 PM 42.5033 -84.9528 230° Southwest 143 165 4,000  Climbing Chicago Center
Thu 11:29:47 PM 42.4747 -84.9867 221° Southwest 140 161 3,900 -298 Descending Chicago Center
Thu 11:30:47 PM 42.4383 -85.0136 209° Southwest 146 168 3,400 -496 Descending Chicago Center
Thu 11:31:48 PM 42.4000 -85.0317 199° South 147 169 2,900 -197 Descending Chicago Center
Thu 11:32:49 PM 42.3622 -85.0333 182° South 139 160 3,000 49 Climbing Chicago Center
Thu 11:33:50 PM 42.3292 -85.0331 180° South 131 151 3,000  Level Chicago Center
Thu 11:34:51 PM 42.2983 -85.0531 206° Southwest 126 145 3,000  Level Chicago Center
Thu 11:35:52 PM 42.2761 -85.0944 234° Southwest 132 152 3,000 -198 Level Chicago Center
Thu 11:36:52 PM 42.2644 -85.1431 252° West 134 154 2,600 -446 Descending Chicago Center
Thu 11:37:53 PM 42.2783 -85.1858 294° West 137 158 2,100 -492 Descending Chicago Center

Login

Don't have an account? Register now (free) for customized features, flight alerts, and more!